19:08
Airports
History
Links
Donate
Help keep this website running!
PayPal
Bitcoin
This page is community maintained. The information is intended for PC simulator navigation or reference.
Always use approved charts for navigation.
ENKR
HOYBUKTMOEN
HOYBUKTMOEN (ENKR)
Finnmark, Norway (9912)
(C)
Lat/Lng:69° 43' 30.77" N / 29° 53' 26.88" E
69.725215 / 29.8908
Elevation:283'ft / 86mMSL
ID / ICAO:ENKR
Runways:1
Longest:06-24
Asphalt 1,883m / 6,177ft
Controlled:Yes
METAR18:50 GMT 2017-11-18
Altimeter: 29.53
Visibility: 6.2 statute miles
Wind: 5 knots (from 180°)
Temp: -9°c / 16°f
Humidity: 92.4%

METAR: ENKR 181850Z 18005KT 9999 FEW001 SCT043 M09/M10 Q1000 RMK WIND 731FT 30006KT

(Powered by phpweather)
Airport Radio Frequencies
ATIS: 118.02
Tower: 118.1, 120.35, 122.1
Nearby VORs <50NM
Nearby NDBs
Runway 06 / 24
Dimensions:1882.9 x 45.1m 6177' x 148'ft
Surface:Asphalt
Edge Lights:High intensity
Runway 06 [A]Runway 24 [B]
Heading:069°TH 249°TH
Lat:
Lng:
69° 43' 19.86"N
29° 52' 4.57"E
69° 43' 41.69"N
29° 54' 49.19"E
ALS:RAILMALS
User Notes and Comments
69° 43' 30.77" N / 29° 53' 26.88" E
Distance To
Airport ID:
Nearby Airports
(C) Vadso 23.5 NM
ENVD N 357°
(C) SVARTNES 51.3 NM
ENSS NNE 32°
(C) BATSFJORD 60.6 NM
ENBS N 355°
(C) Berlevaag 81.7 NM
ENBV NNW 345°
(C) Murmansk 95.6 NM
ULMM ( WX ) SE 132°
(C) Ivalo 98.3 NM
EFIV ( WX ) SW 218°
(C) Mehamn 102.0 NM
ENMH NNW 332°
VFR Chart
Flight Planning at SkyVector.com